SGEN/ENO METAR and TAF weather

Enter ICAO airport designator
Station Type Date Time Source
SGEN METAR 2020/07/06 20:00 UTC NOAA

SGEN 062000Z 18005KT 9999 OVC020 16/14 Q1014


Station Type Date Time Source
SGEN Decoded METAR 2020/07/06 20:00 UTC NOAA

Encarnacion, Paraguay (SGEN) 27-19S 055-50W 91M
Jul 06, 2020 - 04:00 PM EDT / 2020.07.06 2000 UTC
Wind: from the S (180 degrees) at 6 MPH (5 KT):0
Visibility: greater than 7 mile(s):0
Sky conditions: overcast
Temperature: 60 F (16 C)
Dew Point: 57 F (14 C)
Relative Humidity: 87%
Pressure (altimeter): 29.94 in. Hg (1014 hPa)
ob: SGEN 062000Z 18005KT 9999 OVC020 16/14 Q1014
cycle: 20

Station Type Date Time Source
SGEN TAF 2020/07/06 18:00 UTC NOAA

TAF SGEN 061650Z 0618/0718 19008KT 9999 OVC020 TX19/0619Z TN12/0709Z
TEMPO 0619/0621 7000 RA BKN020
BECMG 0700/0703 9999 OVC015 PROB40
TEMPO 0709/0711 6000 TSRA OVC010 FEW040CB

Example: see airport list